Alpha Afovos — SZSJ — position and weather

sailwx.info

Track history (hours):
 
Tides and Currents Weather Stations Pressure Air Temp Water Temp Dewpoint Dewpoint Depression Visibility Wind Speed Wind Dir Waves Ship Positions

Alpha Afovos

Last reported at 2017-Dec-12 11:15 UTC. Time now 2017-Dec-16 17:04 UTC.
Position S 29°39' E 031°51'.

Length 224 m; draft 13.2 m.

Type: Cargo ship. MMSI: 239802000.

Date/timePositionNaut miles runAvg speedWind from/ knotsBaromVisibWave heightAir tempDewpointWater temp
2017-Dec-12 11:15S 29°39' E 031°51'2 9.8
2017-Dec-12 11:00S 29°40' E 031°48'5 9.7
2017-Dec-12 10:30S 29°42' E 031°43'5 9.8
2017-Dec-12 10:00S 29°43' E 031°37'510.4
2017-Dec-12 09:30S 29°45' E 031°32'611.7
2017-Dec-12 09:00S 29°46' E 031°25'612.9
2017-Dec-12 08:30S 29°48' E 031°18'5 9.7
2017-Dec-12 08:00S 29°50' E 031°13'2 4.4
2017-Dec-12 07:31S 29°51' E 031°11'510.2
2017-Dec-12 07:00S 29°55' E 031°08'713.9
2017-Dec-12 06:30S 30°01' E 031°04'713.5
2017-Dec-12 06:00S 30°07' E 030°60'612.9
2017-Dec-12 05:30S 30°13' E 030°56'611.9
2017-Dec-12 05:00S 30°18' E 030°53'510.9
2017-Dec-12 04:30S 30°23' E 030°50'  
Track history (hours):
 
Tides and Currents Weather Stations Pressure Air Temp Water Temp Dewpoint Dewpoint Depression Visibility Wind Speed Wind Dir Waves Ship Positions

Alpha Afovos

Last reported at 2017-Dec-12 11:15 UTC. Time now 2017-Dec-16 17:04 UTC.
Position S 29°39' E 031°51'.

Length 224 m; draft 13.2 m.

Type: Cargo ship. MMSI: 239802000.

Date/timePositionNaut miles runAvg speedWind from/ knotsBaromVisibWave heightAir tempDewpointWater temp
2017-Dec-12 11:15S 29°39' E 031°51'2 9.8
2017-Dec-12 11:00S 29°40' E 031°48'5 9.7
2017-Dec-12 10:30S 29°42' E 031°43'5 9.8
2017-Dec-12 10:00S 29°43' E 031°37'510.4
2017-Dec-12 09:30S 29°45' E 031°32'611.7
2017-Dec-12 09:00S 29°46' E 031°25'612.9
2017-Dec-12 08:30S 29°48' E 031°18'5 9.7
2017-Dec-12 08:00S 29°50' E 031°13'2 4.4
2017-Dec-12 07:31S 29°51' E 031°11'510.2
2017-Dec-12 07:00S 29°55' E 031°08'713.9
2017-Dec-12 06:30S 30°01' E 031°04'713.5
2017-Dec-12 06:00S 30°07' E 030°60'612.9
2017-Dec-12 05:30S 30°13' E 030°56'611.9
2017-Dec-12 05:00S 30°18' E 030°53'510.9
2017-Dec-12 04:30S 30°23' E 030°50'  

Dump ship's entire track history